Time;durP1;ratioP1;P1;durP2;ratioP2;P2;SDS_P1;SDS_P2;PMS_P1;PMS_P2;Temp;Humidity;BMP_temperature;BMP_pressure;BME280_temperature;BME280_humidity;BME280_pressure;Samples;Min_cycle;Max_cycle;Signal;HPM_P1;HPM_P2
2023/03/09 00:02:16;;;;;;;4.63;2.10;;;;;;;;;;5119518;28;20488;-76
2023/03/09 00:04:43;;;;;;;2.10;1.90;;;;;;;;;;5118814;27;20524;-77
2023/03/09 00:07:10;;;;;;;2.20;1.87;;;;;;;;;;5116863;28;20447;-75
2023/03/09 00:09:37;;;;;;;3.83;1.90;;;;;;;;;;5118314;28;20952;-76
2023/03/09 00:12:04;;;;;;;1.93;1.83;;;;;;;;;;5117883;28;20513;-76
2023/03/09 00:14:31;;;;;;;2.30;1.60;;;;;;;;;;5116255;27;20475;-77
2023/03/09 00:16:58;;;;;;;2.00;1.90;;;;;;;;;;5127094;27;20441;-76
2023/03/09 00:19:27;;;;;;;5.80;2.30;;;;;;;;;;5136695;27;20885;-76
2023/03/09 00:21:55;;;;;;;2.20;2.00;;;;;;;;;;5135810;27;20430;-75
2023/03/09 00:24:26;;;;;;;1.73;1.63;;;;;;;;;;5135121;27;20461;-76
2023/03/09 00:26:54;;;;;;;2.23;2.03;;;;;;;;;;5135767;27;20453;-75
2023/03/09 00:29:21;;;;;;;2.07;1.97;;;;;;;;;;5135356;27;20457;-76
2023/03/09 00:31:49;;;;;;;2.57;1.87;;;;;;;;;;5135290;27;20473;-76
2023/03/09 00:34:16;;;;;;;1.50;1.40;;;;;;;;;;5134017;27;20441;-76
2023/03/09 00:36:45;;;;;;;2.17;1.20;;;;;;;;;;5133852;27;20465;-76
2023/03/09 00:39:13;;;;;;;1.33;1.20;;;;;;;;;;5135307;27;20438;-76
2023/03/09 00:41:40;;;;;;;2.10;1.30;;;;;;;;;;5134360;27;20460;-76
2023/03/09 00:44:08;;;;;;;1.27;1.20;;;;;;;;;;5134141;27;20462;-76
2023/03/09 00:46:36;;;;;;;1.20;1.10;;;;;;;;;;5135029;27;20449;-75
2023/03/09 00:49:05;;;;;;;1.40;1.30;;;;;;;;;;5133308;27;20438;-76
2023/03/09 00:51:33;;;;;;;1.30;1.30;;;;;;;;;;5133440;27;20474;-75
2023/03/09 00:54:01;;;;;;;1.87;1.50;;;;;;;;;;5135060;27;20465;-75
2023/03/09 00:56:29;;;;;;;1.90;1.53;;;;;;;;;;5139634;27;20469;-75
2023/03/09 00:58:57;;;;;;;1.30;1.20;;;;;;;;;;5145846;27;20438;-75
2023/03/09 01:01:24;;;;;;;0.80;0.80;;;;;;;;;;5137868;27;20453;-75
2023/03/09 01:03:52;;;;;;;0.80;0.80;;;;;;;;;;5143655;27;20500;-74
2023/03/09 01:06:19;;;;;;;0.97;0.97;;;;;;;;;;5151683;27;20430;-75
2023/03/09 01:08:46;;;;;;;1.90;1.10;;;;;;;;;;5144297;27;20438;-75
2023/03/09 01:11:15;;;;;;;0.80;0.67;;;;;;;;;;5136000;27;20438;-77
2023/03/09 01:13:43;;;;;;;0.60;0.60;;;;;;;;;;5137422;27;20469;-76
2023/03/09 01:16:10;;;;;;;3.63;1.10;;;;;;;;;;5130849;27;20437;-75
2023/03/09 01:18:37;;;;;;;0.60;0.60;;;;;;;;;;5112519;28;20455;-74
2023/03/09 01:21:04;;;;;;;0.63;0.63;;;;;;;;;;5111932;28;20579;-75
2023/03/09 01:23:32;;;;;;;0.77;0.77;;;;;;;;;;5112171;28;20459;-76
2023/03/09 01:25:59;;;;;;;2.40;0.77;;;;;;;;;;5112385;28;20446;-76
2023/03/09 01:28:27;;;;;;;0.87;0.77;;;;;;;;;;5112155;28;20443;-76
2023/03/09 01:30:54;;;;;;;0.50;0.43;;;;;;;;;;5112293;28;20442;-76
2023/03/09 01:33:21;;;;;;;0.70;0.70;;;;;;;;;;5111389;28;20494;-77
2023/03/09 01:35:48;;;;;;;0.53;0.53;;;;;;;;;;5112283;28;20800;-77
2023/03/09 01:38:15;;;;;;;0.40;0.40;;;;;;;;;;5112303;28;20445;-76
2023/03/09 01:40:45;;;;;;;0.60;0.60;;;;;;;;;;5132196;27;20437;-76
2023/03/09 01:43:31;;;;;;;0.60;0.60;;;;;;;;;;5131891;27;20536;-76
2023/03/09 01:46:31;;;;;;;0.50;0.50;;;;;;;;;;5132142;27;21068;-76
2023/03/09 01:49:02;;;;;;;1.27;0.60;;;;;;;;;;5067780;28;20456;-77
2023/03/09 01:51:32;;;;;;;0.60;0.60;;;;;;;;;;5068986;28;20448;-76
2023/03/09 01:54:00;;;;;;;0.60;0.60;;;;;;;;;;5099072;27;20462;-76
2023/03/09 01:56:28;;;;;;;0.50;0.50;;;;;;;;;;5132342;27;20913;-77
2023/03/09 01:58:57;;;;;;;0.80;0.40;;;;;;;;;;5132348;27;20431;-76
2023/03/09 02:01:24;;;;;;;0.50;0.50;;;;;;;;;;5132118;27;20454;-75
2023/03/09 02:03:54;;;;;;;0.80;0.50;;;;;;;;;;5131849;27;20488;-76
2023/03/09 02:06:22;;;;;;;0.60;0.60;;;;;;;;;;5131847;27;20446;-76
2023/03/09 02:08:52;;;;;;;1.07;0.63;;;;;;;;;;5131343;27;20442;-76
2023/03/09 02:11:20;;;;;;;0.50;0.50;;;;;;;;;;5131191;27;20450;-76
2023/03/09 02:13:48;;;;;;;0.53;0.53;;;;;;;;;;5132127;27;20663;-76
2023/03/09 02:16:17;;;;;;;0.77;0.77;;;;;;;;;;5132599;27;20438;-75
2023/03/09 02:18:44;;;;;;;0.57;0.50;;;;;;;;;;5131339;27;20442;-75
2023/03/09 02:21:16;;;;;;;0.50;0.50;;;;;;;;;;5131138;27;20952;-75
2023/03/09 02:23:45;;;;;;;1.80;0.47;;;;;;;;;;5131014;27;20450;-76
2023/03/09 02:26:16;;;;;;;0.77;0.77;;;;;;;;;;5131621;27;20438;-76
2023/03/09 02:28:45;;;;;;;0.70;0.50;;;;;;;;;;5131690;27;20841;-76
2023/03/09 02:31:12;;;;;;;0.47;0.47;;;;;;;;;;5131687;27;20442;-76
2023/03/09 02:33:39;;;;;;;0.60;0.60;;;;;;;;;;5131132;27;20485;-76
2023/03/09 02:36:07;;;;;;;1.13;0.60;;;;;;;;;;5131372;27;20457;-76
2023/03/09 02:38:34;;;;;;;0.60;0.60;;;;;;;;;;5130763;27;20442;-75
2023/03/09 02:41:02;;;;;;;0.50;0.50;;;;;;;;;;5141478;27;21031;-76
2023/03/09 02:43:32;;;;;;;1.70;0.50;;;;;;;;;;5142489;27;20454;-75
2023/03/09 02:46:00;;;;;;;0.40;0.40;;;;;;;;;;5142622;27;20464;-76
2023/03/09 02:48:27;;;;;;;2.13;0.40;;;;;;;;;;5142664;27;20451;-76
2023/03/09 02:50:54;;;;;;;0.60;0.50;;;;;;;;;;5141280;27;20932;-77
2023/03/09 02:53:21;;;;;;;0.50;0.50;;;;;;;;;;5136827;27;20492;-75
2023/03/09 02:55:48;;;;;;;2.30;0.90;;;;;;;;;;5130969;27;20522;-75
2023/03/09 02:58:15;;;;;;;0.57;0.57;;;;;;;;;;5130975;27;20430;-76
2023/03/09 03:00:46;;;;;;;0.60;0.60;;;;;;;;;;5144110;27;20450;-76
2023/03/09 03:03:28;;;;;;;0.87;0.57;;;;;;;;;;5144294;27;20503;-75
2023/03/09 03:05:59;;;;;;;0.57;0.57;;;;;;;;;;5145258;27;20450;-75
2023/03/09 03:08:32;;;;;;;0.57;0.57;;;;;;;;;;5144667;27;20457;-75
2023/03/09 03:11:19;;;;;;;1.70;0.60;;;;;;;;;;5140574;27;20450;-75
2023/03/09 03:13:57;;;;;;;0.77;0.50;;;;;;;;;;5137941;27;20526;-75
2023/03/09 03:16:27;;;;;;;0.90;0.57;;;;;;;;;;5139316;27;20442;-76
2023/03/09 03:19:08;;;;;;;0.70;0.70;;;;;;;;;;5144266;27;20430;-74
2023/03/09 03:21:37;;;;;;;0.50;0.50;;;;;;;;;;5145084;27;20467;-75
2023/03/09 03:24:21;;;;;;;0.50;0.50;;;;;;;;;;5144425;27;20470;-74
2023/03/09 03:26:56;;;;;;;1.07;0.63;;;;;;;;;;5143945;27;20470;-75
2023/03/09 03:29:38;;;;;;;0.70;0.70;;;;;;;;;;5143484;27;20446;-75
2023/03/09 03:35:27;;;;;;;0.93;0.60;;;;;;;;;;5144843;27;20767;-74
2023/03/09 03:37:59;;;;;;;0.60;0.50;;;;;;;;;;5146604;27;20445;-76
2023/03/09 03:40:28;;;;;;;0.63;0.60;;;;;;;;;;5144324;27;20937;-75
2023/03/09 03:43:00;;;;;;;0.60;0.60;;;;;;;;;;5146117;27;20473;-74
2023/03/09 03:45:38;;;;;;;1.90;0.70;;;;;;;;;;5145643;27;20935;-74
2023/03/09 03:48:07;;;;;;;0.60;0.60;;;;;;;;;;5143879;27;20458;-74
2023/03/09 03:50:42;;;;;;;0.57;0.57;;;;;;;;;;5144060;27;20446;-74
2023/03/09 03:53:14;;;;;;;1.87;0.90;;;;;;;;;;5144271;27;20485;-74
2023/03/09 03:55:48;;;;;;;0.60;0.60;;;;;;;;;;5143250;27;20517;-75
2023/03/09 03:58:21;;;;;;;0.70;0.70;;;;;;;;;;5143010;27;20468;-74
2023/03/09 04:01:00;;;;;;;0.70;0.70;;;;;;;;;;5144379;27;20469;-75
2023/03/09 04:03:33;;;;;;;1.13;0.60;;;;;;;;;;5143986;27;20445;-75
2023/03/09 04:09:17;;;;;;;1.03;0.90;;;;;;;;;;5086131;27;20491;-75
2023/03/09 04:11:49;;;;;;;1.17;0.90;;;;;;;;;;5145080;27;20430;-75
2023/03/09 04:14:22;;;;;;;2.73;1.10;;;;;;;;;;5143874;27;20481;-76
2023/03/09 04:17:02;;;;;;;1.70;1.57;;;;;;;;;;5143004;27;20477;-75
2023/03/09 04:19:34;;;;;;;2.20;1.30;;;;;;;;;;5148971;27;20935;-74
2023/03/09 04:22:03;;;;;;;1.47;0.97;;;;;;;;;;5146883;27;20537;-75
2023/03/09 04:24:43;;;;;;;1.80;1.10;;;;;;;;;;5146463;27;20502;-75
2023/03/09 04:27:17;;;;;;;2.80;1.30;;;;;;;;;;5144905;27;20449;-75
2023/03/09 04:29:46;;;;;;;3.10;1.37;;;;;;;;;;5144537;27;20442;-76
2023/03/09 04:32:19;;;;;;;1.73;1.00;;;;;;;;;;5144600;27;20514;-76
2023/03/09 04:34:48;;;;;;;3.47;1.63;;;;;;;;;;5144286;27;20460;-75
2023/03/09 04:37:20;;;;;;;5.07;2.27;;;;;;;;;;5142237;27;20446;-76
2023/03/09 04:39:57;;;;;;;3.17;1.60;;;;;;;;;;5144439;27;20445;-75
2023/03/09 04:42:33;;;;;;;4.93;1.70;;;;;;;;;;5143369;27;20464;-76
2023/03/09 04:45:11;;;;;;;4.00;1.80;;;;;;;;;;5142011;27;20551;-76
2023/03/09 04:47:42;;;;;;;5.50;1.53;;;;;;;;;;5141718;27;20480;-75
2023/03/09 04:50:13;;;;;;;4.13;1.73;;;;;;;;;;5140974;27;20446;-76
2023/03/09 04:52:43;;;;;;;3.40;1.90;;;;;;;;;;5139763;27;20465;-75
2023/03/09 04:55:13;;;;;;;5.13;2.03;;;;;;;;;;5142517;27;20442;-76
2023/03/09 04:57:46;;;;;;;3.53;1.90;;;;;;;;;;5140911;27;20503;-77
2023/03/09 05:00:17;;;;;;;5.73;2.20;;;;;;;;;;5141053;27;20479;-77
2023/03/09 05:02:45;;;;;;;7.47;2.40;;;;;;;;;;5139961;27;20452;-75
2023/03/09 05:05:16;;;;;;;2.10;1.53;;;;;;;;;;5140706;27;20446;-76
2023/03/09 05:07:44;;;;;;;4.27;1.90;;;;;;;;;;5139287;27;20446;-76
2023/03/09 05:10:17;;;;;;;2.53;1.73;;;;;;;;;;5138238;27;20450;-76
2023/03/09 05:12:52;;;;;;;2.50;1.93;;;;;;;;;;5137960;27;20472;-76
2023/03/09 05:15:33;;;;;;;3.13;1.60;;;;;;;;;;5139549;27;20461;-76
2023/03/09 05:18:04;;;;;;;2.93;1.70;;;;;;;;;;5119882;27;20478;-77
2023/03/09 05:20:32;;;;;;;4.73;2.10;;;;;;;;;;5116817;28;20473;-75
2023/03/09 05:23:00;;;;;;;4.93;2.50;;;;;;;;;;5116582;27;20589;-76
2023/03/09 05:25:30;;;;;;;5.57;2.00;;;;;;;;;;5117336;28;20508;-75
2023/03/09 05:27:58;;;;;;;8.43;2.30;;;;;;;;;;5116719;28;20450;-76
2023/03/09 05:30:27;;;;;;;3.73;2.03;;;;;;;;;;5117033;28;20643;-76
2023/03/09 05:32:55;;;;;;;6.93;2.57;;;;;;;;;;5116573;27;20483;-75
2023/03/09 05:35:23;;;;;;;5.80;2.03;;;;;;;;;;5118331;28;20511;-76
2023/03/09 05:37:51;;;;;;;4.90;1.63;;;;;;;;;;5115241;28;20518;-76
2023/03/09 05:40:22;;;;;;;4.00;1.87;;;;;;;;;;5118928;27;20453;-76
2023/03/09 05:42:55;;;;;;;7.13;2.33;;;;;;;;;;5120944;27;20478;-76
2023/03/09 05:45:25;;;;;;;6.47;2.07;;;;;;;;;;5121725;28;20438;-76
2023/03/09 05:47:56;;;;;;;3.73;2.03;;;;;;;;;;5121979;28;20458;-76
2023/03/09 05:50:25;;;;;;;2.83;1.60;;;;;;;;;;5121537;28;20443;-75
2023/03/09 05:52:56;;;;;;;2.70;1.70;;;;;;;;;;5118870;28;20494;-75
2023/03/09 05:55:24;;;;;;;3.87;2.00;;;;;;;;;;5117004;28;20454;-75
2023/03/09 05:57:56;;;;;;;5.60;2.10;;;;;;;;;;5117686;28;20922;-76
2023/03/09 06:00:25;;;;;;;4.93;1.60;;;;;;;;;;5118777;27;20866;-76
2023/03/09 06:02:58;;;;;;;4.43;2.20;;;;;;;;;;5120696;28;20451;-76
2023/03/09 06:05:39;;;;;;;2.80;1.80;;;;;;;;;;5122195;28;20454;-77
2023/03/09 06:08:35;;;;;;;4.30;2.10;;;;;;;;;;5122467;27;20450;-75
2023/03/09 06:11:03;;;;;;;3.90;2.20;;;;;;;;;;5123554;27;20523;-76
2023/03/09 06:13:43;;;;;;;6.67;2.03;;;;;;;;;;5121799;27;20921;-75
2023/03/09 06:16:13;;;;;;;3.93;2.10;;;;;;;;;;5121497;28;20449;-75
2023/03/09 06:18:42;;;;;;;7.83;2.10;;;;;;;;;;5121469;28;20784;-75
2023/03/09 06:21:10;;;;;;;3.13;1.90;;;;;;;;;;5121475;28;20442;-75
2023/03/09 06:23:38;;;;;;;3.77;1.97;;;;;;;;;;5123348;28;20535;-76
2023/03/09 06:26:09;;;;;;;3.33;2.37;;;;;;;;;;5127184;28;20432;-75
2023/03/09 06:28:49;;;;;;;4.40;2.57;;;;;;;;;;5125846;28;20449;-75
2023/03/09 06:31:18;;;;;;;5.23;1.93;;;;;;;;;;5123108;27;20443;-74
2023/03/09 06:33:47;;;;;;;3.70;1.83;;;;;;;;;;5123615;28;20474;-74
2023/03/09 06:36:23;;;;;;;14.67;3.10;;;;;;;;;;5123475;27;21006;-74
2023/03/09 06:38:51;;;;;;;4.43;2.30;;;;;;;;;;5123833;28;20419;-75
2023/03/09 06:41:29;;;;;;;4.93;2.40;;;;;;;;;;5122007;27;20942;-75
2023/03/09 06:44:03;;;;;;;5.23;2.53;;;;;;;;;;5119408;27;20546;-74
2023/03/09 06:46:31;;;;;;;7.50;2.77;;;;;;;;;;5118452;28;20430;-76
2023/03/09 06:48:59;;;;;;;4.67;2.07;;;;;;;;;;5117537;28;21009;-76
2023/03/09 06:51:30;;;;;;;4.60;2.00;;;;;;;;;;5117356;27;20970;-74
2023/03/09 06:54:02;;;;;;;6.20;2.50;;;;;;;;;;5117407;27;20921;-75
2023/03/09 06:56:30;;;;;;;12.03;2.47;;;;;;;;;;5115563;27;20538;-74
2023/03/09 06:59:16;;;;;;;6.30;2.20;;;;;;;;;;5117303;27;20457;-75
2023/03/09 07:01:44;;;;;;;3.30;1.93;;;;;;;;;;5113425;28;20452;-75
2023/03/09 07:04:14;;;;;;;10.13;6.10;;;;;;;;;;5112928;27;20494;-76
2023/03/09 07:06:42;;;;;;;5.57;2.30;;;;;;;;;;5112681;28;20814;-75
2023/03/09 07:09:16;;;;;;;7.20;2.90;;;;;;;;;;5111389;28;20446;-74
2023/03/09 07:11:51;;;;;;;4.43;2.27;;;;;;;;;;5113100;27;20466;-75
2023/03/09 07:14:23;;;;;;;5.53;2.37;;;;;;;;;;5112968;27;20482;-75
2023/03/09 07:16:59;;;;;;;5.07;2.83;;;;;;;;;;5133257;27;20450;-75
2023/03/09 07:19:29;;;;;;;5.20;2.20;;;;;;;;;;5133777;27;20837;-76
2023/03/09 07:21:59;;;;;;;5.50;1.90;;;;;;;;;;5150027;27;20448;-75
2023/03/09 07:24:34;;;;;;;5.07;2.43;;;;;;;;;;5121555;27;20464;-76
2023/03/09 07:27:02;;;;;;;6.00;2.30;;;;;;;;;;5154377;27;20449;-75
2023/03/09 07:29:50;;;;;;;5.40;2.33;;;;;;;;;;5155382;27;20429;-77
2023/03/09 07:32:21;;;;;;;4.93;2.67;;;;;;;;;;5152842;27;20509;-74
2023/03/09 07:34:49;;;;;;;7.37;2.23;;;;;;;;;;5153910;27;20596;-75
2023/03/09 07:37:24;;;;;;;5.17;1.77;;;;;;;;;;5153951;27;20448;-76
2023/03/09 07:39:57;;;;;;;5.27;2.07;;;;;;;;;;5154199;27;20405;-75
2023/03/09 07:42:28;;;;;;;2.63;1.93;;;;;;;;;;5154065;27;20448;-74
2023/03/09 07:45:05;;;;;;;4.80;1.77;;;;;;;;;;5154003;27;20437;-74
2023/03/09 07:47:34;;;;;;;4.47;1.53;;;;;;;;;;5154478;27;20487;-75
2023/03/09 07:50:05;;;;;;;4.03;1.80;;;;;;;;;;5154445;27;20468;-75
2023/03/09 07:52:33;;;;;;;2.63;1.83;;;;;;;;;;5153706;27;20449;-76
2023/03/09 07:55:07;;;;;;;4.27;1.73;;;;;;;;;;5154286;27;20563;-75
2023/03/09 07:57:43;;;;;;;5.50;2.07;;;;;;;;;;5154494;27;20453;-76
2023/03/09 08:00:20;;;;;;;5.87;2.23;;;;;;;;;;5154375;27;20451;-75
2023/03/09 08:02:53;;;;;;;7.03;3.00;;;;;;;;;;5152933;27;20473;-76
2023/03/09 08:05:25;;;;;;;5.37;2.07;;;;;;;;;;5154312;27;20449;-76
2023/03/09 08:08:04;;;;;;;4.90;2.17;;;;;;;;;;5155366;27;20425;-75
2023/03/09 08:10:34;;;;;;;4.10;1.50;;;;;;;;;;5154494;27;20815;-76
2023/03/09 08:13:04;;;;;;;3.27;1.23;;;;;;;;;;5154006;27;20469;-75
2023/03/09 08:15:37;;;;;;;3.77;1.70;;;;;;;;;;5155168;27;20476;-76
2023/03/09 08:18:12;;;;;;;5.60;1.47;;;;;;;;;;5136148;27;20678;-76
2023/03/09 08:20:42;;;;;;;3.40;1.40;;;;;;;;;;5136833;27;20453;-76
2023/03/09 08:23:12;;;;;;;5.97;1.47;;;;;;;;;;5138106;27;20856;-76
2023/03/09 08:25:41;;;;;;;3.60;1.40;;;;;;;;;;5139151;27;20499;-75
2023/03/09 08:28:09;;;;;;;5.80;1.30;;;;;;;;;;5139768;27;20473;-75
2023/03/09 08:30:44;;;;;;;3.00;1.43;;;;;;;;;;5140343;27;20450;-75
2023/03/09 08:33:28;;;;;;;2.67;1.10;;;;;;;;;;5141683;27;20461;-76
2023/03/09 08:41:28;;;;;;;3.47;1.40;;;;;;;;;;5075562;28;20954;-76
2023/03/09 08:44:04;;;;;;;3.70;1.30;;;;;;;;;;5127548;27;20571;-76
2023/03/09 08:46:34;;;;;;;2.43;1.10;;;;;;;;;;5139084;27;20513;-75
2023/03/09 08:49:04;;;;;;;3.10;1.30;;;;;;;;;;5138423;27;20468;-76
2023/03/09 08:51:40;;;;;;;5.77;1.67;;;;;;;;;;5138929;27;20434;-76
2023/03/09 08:54:10;;;;;;;2.10;1.10;;;;;;;;;;5138044;27;20488;-76
2023/03/09 08:56:44;;;;;;;2.93;1.60;;;;;;;;;;5139092;27;20482;-77
2023/03/09 08:59:15;;;;;;;3.40;1.60;;;;;;;;;;5138493;27;20451;-76
2023/03/09 09:01:45;;;;;;;5.07;1.67;;;;;;;;;;5138738;27;20465;-76
2023/03/09 09:04:14;;;;;;;2.83;1.20;;;;;;;;;;5138140;27;20469;-77
2023/03/09 09:06:45;;;;;;;2.73;1.20;;;;;;;;;;5140311;27;20530;-76
2023/03/09 09:09:16;;;;;;;1.27;1.17;;;;;;;;;;5139378;27;20434;-77
2023/03/09 09:11:49;;;;;;;4.40;1.00;;;;;;;;;;5139754;27;20457;-76
2023/03/09 09:14:29;;;;;;;2.17;1.10;;;;;;;;;;5138947;27;20485;-76
2023/03/09 09:16:59;;;;;;;2.13;1.20;;;;;;;;;;5129993;27;20472;-77
2023/03/09 09:19:35;;;;;;;2.27;1.10;;;;;;;;;;5125131;27;20439;-75
2023/03/09 09:22:10;;;;;;;2.33;1.47;;;;;;;;;;5122176;27;20949;-76
2023/03/09 09:24:38;;;;;;;3.67;1.10;;;;;;;;;;5131058;27;20449;-76
2023/03/09 09:27:06;;;;;;;2.20;1.20;;;;;;;;;;5124298;27;20446;-77
2023/03/09 09:29:39;;;;;;;4.60;1.27;;;;;;;;;;5131365;27;20788;-76
2023/03/09 09:32:16;;;;;;;2.53;1.67;;;;;;;;;;5130686;27;20443;-76
2023/03/09 09:34:55;;;;;;;1.80;1.00;;;;;;;;;;5133029;27;20481;-75
2023/03/09 09:37:23;;;;;;;2.77;1.43;;;;;;;;;;5124684;27;20836;-75
2023/03/09 09:39:58;;;;;;;3.23;1.37;;;;;;;;;;5128657;27;20436;-77
2023/03/09 09:42:29;;;;;;;2.73;1.10;;;;;;;;;;5120088;28;20514;-77
2023/03/09 09:45:05;;;;;;;3.97;1.10;;;;;;;;;;5125342;27;20472;-77
2023/03/09 09:47:36;;;;;;;2.30;1.47;;;;;;;;;;5133245;27;20537;-76
2023/03/09 09:50:05;;;;;;;2.43;1.23;;;;;;;;;;5134197;27;21009;-77
2023/03/09 09:52:41;;;;;;;1.73;1.17;;;;;;;;;;5130332;27;20951;-76
2023/03/09 09:55:15;;;;;;;1.43;1.30;;;;;;;;;;5122955;27;20462;-78
2023/03/09 09:57:46;;;;;;;5.53;1.40;;;;;;;;;;5122513;27;21058;-77
2023/03/09 10:00:19;;;;;;;1.87;1.23;;;;;;;;;;5129739;27;20476;-77
2023/03/09 10:03:13;;;;;;;1.63;1.30;;;;;;;;;;5128556;27;20476;-77
2023/03/09 10:05:46;;;;;;;2.87;1.13;;;;;;;;;;5126498;27;20525;-79
2023/03/09 10:08:37;;;;;;;1.70;1.33;;;;;;;;;;5122668;27;20451;-77
2023/03/09 10:11:12;;;;;;;2.37;1.40;;;;;;;;;;5126516;27;20439;-76
2023/03/09 10:13:46;;;;;;;2.00;1.00;;;;;;;;;;5124533;27;20462;-77
2023/03/09 10:16:19;;;;;;;1.00;1.00;;;;;;;;;;5125135;27;20469;-76
2023/03/09 10:19:00;;;;;;;2.73;1.27;;;;;;;;;;5114419;28;20954;-77
2023/03/09 10:21:33;;;;;;;1.47;1.00;;;;;;;;;;5114015;28;20443;-77
2023/03/09 10:24:14;;;;;;;3.67;1.27;;;;;;;;;;5125632;27;20973;-76
2023/03/09 10:26:44;;;;;;;13.50;8.57;;;;;;;;;;5123286;27;20510;-77
2023/03/09 10:29:20;;;;;;;2.80;1.30;;;;;;;;;;5120443;27;20442;-77
2023/03/09 10:31:55;;;;;;;1.40;1.20;;;;;;;;;;5126053;27;20434;-76
2023/03/09 10:34:25;;;;;;;2.90;1.17;;;;;;;;;;5113080;27;20474;-77
2023/03/09 10:37:12;;;;;;;0.87;0.87;;;;;;;;;;5113518;27;20443;-77
2023/03/09 10:39:42;;;;;;;1.63;1.40;;;;;;;;;;5114539;27;20525;-77
2023/03/09 10:42:19;;;;;;;2.47;1.17;;;;;;;;;;5112738;27;20435;-77
2023/03/09 10:44:51;;;;;;;1.73;1.10;;;;;;;;;;5124196;27;21004;-75
2023/03/09 10:47:21;;;;;;;3.10;1.10;;;;;;;;;;5125450;27;20446;-78
2023/03/09 10:50:03;;;;;;;2.70;1.30;;;;;;;;;;5123271;27;20422;-78
2023/03/09 10:52:36;;;;;;;3.00;1.00;;;;;;;;;;5124329;27;20526;-75
2023/03/09 10:55:23;;;;;;;3.00;1.40;;;;;;;;;;5123846;27;20462;-76
2023/03/09 10:58:02;;;;;;;1.30;1.10;;;;;;;;;;5134508;27;20860;-78
2023/03/09 11:00:30;;;;;;;2.00;1.03;;;;;;;;;;5135108;27;20454;-77
2023/03/09 11:03:17;;;;;;;1.83;1.10;;;;;;;;;;5133683;27;20478;-77
2023/03/09 11:05:50;;;;;;;2.07;1.20;;;;;;;;;;5134744;27;20882;-77
2023/03/09 11:08:28;;;;;;;2.83;1.63;;;;;;;;;;5136469;27;20548;-76
2023/03/09 11:11:11;;;;;;;2.03;1.30;;;;;;;;;;5138267;27;20445;-77
2023/03/09 11:13:48;;;;;;;3.07;1.23;;;;;;;;;;5140484;27;20490;-77
2023/03/09 11:16:23;;;;;;;3.23;1.53;;;;;;;;;;5139106;27;20497;-78
2023/03/09 11:19:05;;;;;;;2.27;1.20;;;;;;;;;;5121841;28;20840;-77
2023/03/09 11:21:33;;;;;;;1.70;1.07;;;;;;;;;;5114327;27;21177;-76
2023/03/09 11:24:04;;;;;;;2.70;1.40;;;;;;;;;;5122208;28;20496;-77
2023/03/09 11:26:35;;;;;;;5.37;1.40;;;;;;;;;;5120279;27;20511;-76
2023/03/09 11:29:15;;;;;;;2.70;0.97;;;;;;;;;;5116362;28;20457;-78
2023/03/09 11:31:57;;;;;;;1.97;1.20;;;;;;;;;;5118605;27;20466;-77
2023/03/09 11:34:42;;;;;;;3.17;1.30;;;;;;;;;;5117288;27;20482;-78
2023/03/09 11:37:20;;;;;;;4.23;2.37;;;;;;;;;;5118656;28;20451;-78
2023/03/09 11:40:03;;;;;;;4.07;1.20;;;;;;;;;;5138270;27;20442;-76
2023/03/09 11:42:34;;;;;;;2.73;1.27;;;;;;;;;;5139923;27;20462;-77
2023/03/09 11:45:07;;;;;;;2.17;1.10;;;;;;;;;;5139849;27;20497;-77
2023/03/09 11:47:47;;;;;;;1.67;1.10;;;;;;;;;;5122285;27;20443;-76
2023/03/09 11:50:36;;;;;;;3.10;1.60;;;;;;;;;;5116992;28;20442;-76
2023/03/09 11:53:09;;;;;;;3.13;1.40;;;;;;;;;;5115293;27;20482;-77
2023/03/09 11:55:55;;;;;;;1.03;0.80;;;;;;;;;;5119933;28;20478;-77
2023/03/09 11:58:33;;;;;;;1.93;1.37;;;;;;;;;;5117791;27;20474;-78
2023/03/09 12:01:09;;;;;;;1.70;1.03;;;;;;;;;;5118949;28;20508;-78
2023/03/09 12:03:45;;;;;;;3.30;1.10;;;;;;;;;;5119261;28;20439;-76
2023/03/09 12:06:24;;;;;;;2.10;1.27;;;;;;;;;;5119521;27;20442;-77
2023/03/09 12:09:09;;;;;;;2.23;1.20;;;;;;;;;;5129585;27;20486;-76
2023/03/09 12:11:41;;;;;;;1.00;0.90;;;;;;;;;;5140225;27;20433;-76
2023/03/09 12:14:15;;;;;;;3.27;1.40;;;;;;;;;;5145160;27;20533;-76
2023/03/09 12:16:50;;;;;;;2.73;1.30;;;;;;;;;;5144187;27;20460;-77
2023/03/09 12:19:25;;;;;;;3.90;1.17;;;;;;;;;;5140371;27;20454;-77
2023/03/09 12:22:12;;;;;;;1.90;0.90;;;;;;;;;;5141017;27;20483;-78
2023/03/09 12:24:48;;;;;;;2.90;1.40;;;;;;;;;;5141530;27;20546;-75
2023/03/09 12:27:32;;;;;;;2.73;1.10;;;;;;;;;;5139677;27;20437;-75
2023/03/09 12:30:15;;;;;;;2.10;1.10;;;;;;;;;;5137613;27;20950;-76
2023/03/09 12:32:43;;;;;;;3.30;1.20;;;;;;;;;;5137463;27;20453;-76
2023/03/09 12:35:35;;;;;;;2.10;1.37;;;;;;;;;;5137801;27;20581;-76
2023/03/09 12:38:18;;;;;;;1.90;0.90;;;;;;;;;;5139646;27;20450;-76
2023/03/09 12:40:50;;;;;;;2.70;1.40;;;;;;;;;;5141752;27;20422;-75
2023/03/09 12:43:48;;;;;;;2.30;1.30;;;;;;;;;;5144595;27;20470;-75
2023/03/09 12:46:41;;;;;;;3.40;1.60;;;;;;;;;;5144699;27;20461;-76
2023/03/09 12:49:24;;;;;;;2.60;1.50;;;;;;;;;;5143346;27;20863;-77
2023/03/09 12:52:01;;;;;;;3.03;1.33;;;;;;;;;;5140319;27;20434;-76
2023/03/09 12:54:37;;;;;;;2.23;1.20;;;;;;;;;;5139657;27;20499;-75
2023/03/09 12:57:20;;;;;;;4.60;1.70;;;;;;;;;;5139874;27;20481;-76
2023/03/09 12:59:55;;;;;;;3.27;1.30;;;;;;;;;;5143111;27;20526;-76
2023/03/09 13:02:33;;;;;;;3.57;1.57;;;;;;;;;;5142133;27;20449;-76
2023/03/09 13:05:25;;;;;;;2.90;1.20;;;;;;;;;;5139185;27;20465;-77
2023/03/09 13:07:59;;;;;;;3.13;1.03;;;;;;;;;;5141135;27;20941;-76
2023/03/09 13:10:30;;;;;;;3.47;1.40;;;;;;;;;;5140056;27;20430;-77
2023/03/09 13:13:19;;;;;;;3.27;1.57;;;;;;;;;;5139756;27;20523;-77
2023/03/09 13:15:50;;;;;;;1.87;1.30;;;;;;;;;;5127857;27;20501;-76
2023/03/09 13:18:27;;;;;;;3.53;1.50;;;;;;;;;;5133590;27;20457;-76
2023/03/09 13:21:29;;;;;;;1.80;1.03;;;;;;;;;;5144338;27;20510;-77
2023/03/09 13:24:08;;;;;;;3.40;1.10;;;;;;;;;;5146267;27;20537;-76
2023/03/09 13:26:47;;;;;;;2.93;1.30;;;;;;;;;;5148356;27;20515;-76
2023/03/09 13:29:26;;;;;;;2.30;1.37;;;;;;;;;;5148370;27;20510;-77
2023/03/09 13:31:59;;;;;;;2.33;1.07;;;;;;;;;;5147881;27;20438;-76
2023/03/09 13:34:45;;;;;;;3.13;1.13;;;;;;;;;;5149488;27;20485;-76
2023/03/09 13:37:26;;;;;;;2.53;1.43;;;;;;;;;;5149078;27;20541;-76
2023/03/09 13:40:02;;;;;;;4.83;1.37;;;;;;;;;;5149653;27;20515;-77
2023/03/09 13:42:44;;;;;;;3.10;1.20;;;;;;;;;;5147618;27;20567;-77
2023/03/09 13:45:31;;;;;;;1.90;1.13;;;;;;;;;;5147858;27;20449;-77
2023/03/09 13:48:02;;;;;;;3.83;1.27;;;;;;;;;;5149318;27;20501;-76
2023/03/09 13:50:36;;;;;;;3.93;1.90;;;;;;;;;;5148524;27;20468;-77
2023/03/09 13:53:23;;;;;;;2.20;1.57;;;;;;;;;;5145555;27;20505;-74
2023/03/09 13:56:04;;;;;;;1.50;1.40;;;;;;;;;;5146938;27;20481;-76
2023/03/09 13:58:33;;;;;;;5.20;1.60;;;;;;;;;;5144619;27;20431;-75
2023/03/09 14:01:03;;;;;;;2.23;1.20;;;;;;;;;;5141587;27;20546;-75
2023/03/09 14:03:40;;;;;;;1.50;1.30;;;;;;;;;;5144191;27;20480;-75
2023/03/09 14:06:15;;;;;;;1.53;1.03;;;;;;;;;;5148912;27;20457;-77
2023/03/09 14:08:55;;;;;;;5.13;1.57;;;;;;;;;;5148594;27;20521;-76
2023/03/09 14:11:31;;;;;;;5.30;1.63;;;;;;;;;;5149983;27;20445;-74
2023/03/09 14:14:10;;;;;;;2.30;1.53;;;;;;;;;;5149041;27;20476;-76
2023/03/09 14:16:41;;;;;;;1.87;0.93;;;;;;;;;;5148035;27;20477;-78
2023/03/09 14:19:26;;;;;;;5.90;1.47;;;;;;;;;;5147312;27;20532;-77
2023/03/09 14:22:05;;;;;;;2.23;1.10;;;;;;;;;;5148374;27;20438;-76
2023/03/09 14:25:00;;;;;;;4.87;1.93;;;;;;;;;;5147781;27;20470;-76
2023/03/09 14:27:35;;;;;;;7.27;1.87;;;;;;;;;;5148860;27;20434;-76
2023/03/09 14:30:18;;;;;;;3.33;1.30;;;;;;;;;;5147813;27;20441;-77
2023/03/09 14:33:03;;;;;;;4.50;1.40;;;;;;;;;;5148812;27;20438;-77
2023/03/09 14:35:36;;;;;;;3.33;1.70;;;;;;;;;;5149663;27;20434;-77
2023/03/09 14:38:16;;;;;;;3.50;1.23;;;;;;;;;;5149897;27;20491;-76
2023/03/09 14:40:47;;;;;;;3.57;1.53;;;;;;;;;;5148419;27;20437;-77
2023/03/09 14:43:33;;;;;;;3.50;1.50;;;;;;;;;;5144869;27;20454;-77
2023/03/09 14:46:19;;;;;;;2.23;1.27;;;;;;;;;;5145878;27;20460;-76
2023/03/09 14:48:47;;;;;;;2.63;1.60;;;;;;;;;;5144583;27;20518;-77
2023/03/09 14:51:15;;;;;;;2.83;1.63;;;;;;;;;;5144366;27;20498;-76
2023/03/09 14:53:53;;;;;;;2.60;1.30;;;;;;;;;;5141720;27;20494;-79
2023/03/09 14:56:21;;;;;;;2.43;1.57;;;;;;;;;;5144364;27;20480;-78
2023/03/09 14:58:53;;;;;;;2.93;1.20;;;;;;;;;;5146221;27;20445;-77
2023/03/09 15:01:23;;;;;;;5.30;1.83;;;;;;;;;;5146591;27;20481;-77
2023/03/09 15:03:51;;;;;;;5.73;1.60;;;;;;;;;;5147113;27;20456;-77
2023/03/09 15:06:25;;;;;;;2.93;1.10;;;;;;;;;;5144543;27;20438;-78
2023/03/09 15:08:58;;;;;;;2.17;1.20;;;;;;;;;;5138625;27;20470;-77
2023/03/09 15:11:25;;;;;;;2.90;1.17;;;;;;;;;;5138263;27;20450;-78
2023/03/09 15:13:57;;;;;;;2.43;1.37;;;;;;;;;;5136374;27;20461;-78
2023/03/09 15:16:25;;;;;;;2.53;1.27;;;;;;;;;;5136659;27;20473;-76
2023/03/09 15:18:53;;;;;;;2.40;1.63;;;;;;;;;;5140226;27;20449;-78
2023/03/09 15:21:21;;;;;;;5.33;1.63;;;;;;;;;;5137888;27;20434;-75
2023/03/09 15:23:49;;;;;;;2.50;1.20;;;;;;;;;;5137837;27;20536;-76
2023/03/09 15:26:17;;;;;;;2.20;1.33;;;;;;;;;;5141160;27;20874;-78
2023/03/09 15:28:47;;;;;;;3.10;1.53;;;;;;;;;;5142878;27;20426;-76
2023/03/09 15:31:24;;;;;;;3.10;1.70;;;;;;;;;;5147343;27;20521;-77
2023/03/09 15:33:56;;;;;;;4.37;1.63;;;;;;;;;;5147746;27;20877;-76